createdAt,value
2022-12-18T00:00:43.027Z,25.70
2022-12-18T00:01:43.055Z,31.90
2022-12-18T00:02:43.090Z,44.50
2022-12-18T00:03:43.385Z,31.70
2022-12-18T00:04:43.000Z,38.30
2022-12-18T00:05:43.004Z,43.10
2022-12-18T00:06:43.072Z,31.80
2022-12-18T00:07:43.007Z,37.00
2022-12-18T00:08:42.934Z,43.50
2022-12-18T00:09:42.949Z,27.90
2022-12-18T00:10:42.914Z,36.20
2022-12-18T00:11:42.926Z,38.10
2022-12-18T00:12:42.896Z,28.50
2022-12-18T00:13:43.008Z,31.50
2022-12-18T00:14:42.888Z,34.20
2022-12-18T00:15:42.933Z,28.30
2022-12-18T00:16:42.888Z,29.50
2022-12-18T00:17:42.857Z,34.70
2022-12-18T00:18:42.845Z,28.20
2022-12-18T00:19:42.851Z,29.10
2022-12-18T00:20:42.840Z,31.70
2022-12-18T00:21:42.835Z,28.90
2022-12-18T00:22:42.869Z,31.90
2022-12-18T00:23:43.299Z,31.80
2022-12-18T00:24:42.784Z,32.90
2022-12-18T00:25:42.827Z,34.60
2022-12-18T00:26:42.777Z,25.60
2022-12-18T00:27:42.770Z,35.20
2022-12-18T00:28:42.768Z,36.80
2022-12-18T00:29:42.790Z,27.70
2022-12-18T00:30:42.760Z,37.60
2022-12-18T00:31:42.834Z,27.10
2022-12-18T00:32:42.736Z,33.70
2022-12-18T00:33:42.945Z,36.60
2022-12-18T00:34:42.731Z,33.40
2022-12-18T00:35:42.714Z,29.40
2022-12-18T00:36:42.683Z,31.20
2022-12-18T00:37:42.700Z,32.70
2022-12-18T00:38:42.698Z,24.80
2022-12-18T00:39:42.675Z,28.40
2022-12-18T00:40:42.677Z,31.00
2022-12-18T00:41:42.651Z,30.10
2022-12-18T00:42:42.679Z,34.30
2022-12-18T00:43:42.931Z,31.80
2022-12-18T00:44:42.633Z,28.90
2022-12-18T00:45:42.694Z,30.20
2022-12-18T00:46:42.602Z,35.60
2022-12-18T00:47:42.587Z,32.80
2022-12-18T00:48:42.605Z,36.40
2022-12-18T00:49:42.567Z,32.00
2022-12-18T00:50:42.585Z,33.70
2022-12-18T00:51:42.551Z,36.60
2022-12-18T00:52:42.630Z,37.30
2022-12-18T00:53:42.531Z,36.00
2022-12-18T00:54:42.551Z,40.40
2022-12-18T00:55:42.521Z,31.70
2022-12-18T00:56:49.018Z,36.70
2022-12-18T00:57:42.504Z,32.50
2022-12-18T00:58:42.576Z,39.10
2022-12-18T00:59:42.482Z,43.50
2022-12-18T01:00:42.539Z,30.90
2022-12-18T01:01:42.649Z,39.10
2022-12-18T01:02:42.674Z,37.60
2022-12-18T01:03:42.439Z,37.20
2022-12-18T01:04:42.437Z,40.10
2022-12-18T01:05:42.473Z,30.10
2022-12-18T01:06:42.409Z,29.00
2022-12-18T01:07:42.409Z,45.40
2022-12-18T01:08:42.416Z,29.40
2022-12-18T01:09:42.453Z,30.70
2022-12-18T01:10:42.380Z,36.50
2022-12-18T01:11:42.400Z,35.20
2022-12-18T01:12:42.373Z,39.00
2022-12-18T01:13:42.501Z,32.80
2022-12-18T01:14:42.385Z,37.00
2022-12-18T01:15:42.352Z,40.40
2022-12-18T01:16:42.420Z,31.80
2022-12-18T01:17:42.335Z,39.10
2022-12-18T01:18:42.307Z,29.80
2022-12-18T01:19:42.327Z,34.20
2022-12-18T01:20:42.317Z,46.20
2022-12-18T01:21:42.277Z,34.80
2022-12-18T01:22:42.268Z,32.40
2022-12-18T01:23:42.691Z,38.60
2022-12-18T01:24:42.263Z,32.90
2022-12-18T01:25:42.279Z,40.60
2022-12-18T01:26:42.230Z,35.90
2022-12-18T01:27:42.271Z,38.20
2022-12-18T01:28:42.221Z,33.90
2022-12-18T01:29:42.217Z,34.40
2022-12-18T01:30:42.210Z,38.70
2022-12-18T01:31:42.294Z,29.50
2022-12-18T01:32:42.178Z,33.60
2022-12-18T01:33:42.187Z,33.20
2022-12-18T01:34:42.218Z,37.00
2022-12-18T01:35:42.178Z,37.30
2022-12-18T01:36:42.153Z,29.80
2022-12-18T01:37:42.131Z,29.30
2022-12-18T01:38:42.157Z,38.30
2022-12-18T01:39:42.204Z,44.00
2022-12-18T01:40:42.133Z,30.90
2022-12-18T01:41:42.101Z,36.90
2022-12-18T01:42:42.098Z,36.00
2022-12-18T01:43:42.101Z,37.80
2022-12-18T01:44:42.134Z,32.70
2022-12-18T01:45:42.106Z,43.00
2022-12-18T01:46:42.088Z,34.30
2022-12-18T01:47:42.048Z,28.50
2022-12-18T01:48:42.107Z,35.10
2022-12-18T01:49:42.069Z,34.30
2022-12-18T01:50:42.032Z,36.00
2022-12-18T01:51:42.005Z,33.60
2022-12-18T01:52:41.995Z,37.00
2022-12-18T01:53:42.148Z,32.40
2022-12-18T01:54:41.976Z,34.40
2022-12-18T01:55:41.985Z,36.90
2022-12-18T01:56:41.960Z,41.00
2022-12-18T01:57:41.956Z,39.30
2022-12-18T01:58:41.950Z,46.10
2022-12-18T01:59:41.965Z,34.60
2022-12-18T02:01:59.842Z,36.10
2022-12-18T02:03:00.711Z,39.00
2022-12-18T02:04:00.577Z,33.30
2022-12-18T02:05:00.576Z,33.40
2022-12-18T02:06:00.542Z,38.30
2022-12-18T02:07:00.536Z,43.00
2022-12-18T02:08:00.540Z,41.00
2022-12-18T02:09:00.502Z,37.20
2022-12-18T02:10:00.515Z,37.40
2022-12-18T02:11:00.506Z,32.20
2022-12-18T02:12:00.485Z,41.20
2022-12-18T02:13:00.493Z,49.60
2022-12-18T02:14:00.463Z,41.50
2022-12-18T02:15:00.471Z,36.10
2022-12-18T02:16:00.457Z,41.30
2022-12-18T02:17:00.523Z,41.10
2022-12-18T02:18:00.428Z,38.70
2022-12-18T02:19:00.420Z,37.00
2022-12-18T02:20:00.427Z,39.70
2022-12-18T02:21:00.397Z,42.00
2022-12-18T02:22:00.394Z,31.70
2022-12-18T02:23:00.429Z,44.70
2022-12-18T02:24:00.379Z,41.00
2022-12-18T02:25:00.389Z,33.70
2022-12-18T02:26:00.357Z,40.40
2022-12-18T02:27:00.360Z,34.40
2022-12-18T02:28:00.353Z,36.00
2022-12-18T02:29:00.339Z,34.10
2022-12-18T02:30:00.330Z,29.30
2022-12-18T02:31:00.349Z,42.70
2022-12-18T02:32:00.311Z,42.30
2022-12-18T02:33:00.316Z,42.60
2022-12-18T02:34:00.302Z,44.10
2022-12-18T02:35:00.290Z,36.60
2022-12-18T02:36:00.283Z,52.10
2022-12-18T02:37:00.274Z,41.70
2022-12-18T02:38:00.260Z,42.50
2022-12-18T02:39:00.313Z,51.10
2022-12-18T02:40:00.250Z,36.10
2022-12-18T02:41:00.223Z,41.30
2022-12-18T02:42:00.230Z,39.90
2022-12-18T02:43:00.204Z,42.90
2022-12-18T02:44:00.196Z,40.90
2022-12-18T02:45:00.216Z,44.80
2022-12-18T02:46:00.260Z,49.40
2022-12-18T02:47:00.172Z,47.70
2022-12-18T02:48:00.201Z,42.60
2022-12-18T02:49:00.158Z,41.20
2022-12-18T02:50:00.245Z,34.40
2022-12-18T02:51:00.157Z,37.70
2022-12-18T02:52:00.124Z,45.60
2022-12-18T02:53:00.113Z,51.70
2022-12-18T02:54:00.108Z,37.20
2022-12-18T02:55:00.114Z,37.10
2022-12-18T02:56:00.086Z,44.50
2022-12-18T02:57:00.096Z,37.50
2022-12-18T02:58:00.091Z,38.90
2022-12-18T02:59:00.141Z,44.70
2022-12-18T03:00:00.057Z,38.60
2022-12-18T03:01:00.156Z,41.20
2022-12-18T03:02:00.300Z,43.50
2022-12-18T03:03:00.210Z,50.40
2022-12-18T03:04:00.034Z,36.50
2022-12-18T03:05:00.019Z,38.70
2022-12-18T03:06:00.000Z,38.00
2022-12-18T03:07:00.025Z,32.40
2022-12-18T03:07:59.982Z,38.00
2022-12-18T03:08:59.967Z,45.00
2022-12-18T03:09:59.967Z,44.60
2022-12-18T03:10:59.957Z,46.90
2022-12-18T03:11:59.948Z,46.70
2022-12-18T03:13:00.052Z,44.00
2022-12-18T03:13:59.932Z,36.50
2022-12-18T03:15:00.118Z,34.10
2022-12-18T03:15:59.914Z,45.50
2022-12-18T03:16:59.960Z,44.70
2022-12-18T03:17:59.913Z,39.40
2022-12-18T03:19:00.017Z,46.90
2022-12-18T03:19:59.877Z,42.60
2022-12-18T03:20:59.884Z,45.60
2022-12-18T03:21:59.876Z,37.40
2022-12-18T03:22:59.864Z,46.00
2022-12-18T03:23:59.845Z,36.30
2022-12-18T03:24:59.844Z,42.30
2022-12-18T03:26:04.403Z,52.70
2022-12-18T03:26:59.823Z,44.80
2022-12-18T03:27:59.829Z,41.50
2022-12-18T03:28:59.829Z,43.50
2022-12-18T03:29:59.863Z,45.40
2022-12-18T03:30:59.824Z,43.10
2022-12-18T03:31:59.770Z,41.00
2022-12-18T03:33:00.490Z,49.80
2022-12-18T03:33:59.756Z,40.80
2022-12-18T03:34:59.789Z,49.20
2022-12-18T03:35:59.735Z,46.00
2022-12-18T03:36:59.722Z,57.50
2022-12-18T03:37:59.720Z,47.80
2022-12-18T03:38:59.711Z,40.60
2022-12-18T03:39:59.715Z,40.40
2022-12-18T03:40:59.722Z,42.20
2022-12-18T03:41:59.675Z,43.00
2022-12-18T03:42:59.844Z,51.30
2022-12-18T03:43:59.663Z,44.40
2022-12-18T03:44:59.768Z,45.20
2022-12-18T03:45:59.701Z,44.80
2022-12-18T03:46:59.714Z,48.20
2022-12-18T03:47:59.645Z,42.60
2022-12-18T03:48:59.617Z,61.20
2022-12-18T03:49:59.612Z,36.60
2022-12-18T03:50:59.604Z,46.70
2022-12-18T03:51:59.628Z,43.90
2022-12-18T03:52:59.657Z,43.70
2022-12-18T03:53:59.580Z,39.30
2022-12-18T03:54:59.598Z,41.70
2022-12-18T03:55:59.561Z,46.30
2022-12-18T03:56:59.577Z,40.40
2022-12-18T03:57:59.539Z,46.80
2022-12-18T03:58:59.525Z,43.70
2022-12-18T03:59:59.701Z,59.80
2022-12-18T04:00:59.541Z,49.90
2022-12-18T04:01:59.617Z,48.60
2022-12-18T04:02:59.727Z,37.80
2022-12-18T04:03:59.517Z,42.10
2022-12-18T04:04:59.476Z,56.90
2022-12-18T04:05:59.531Z,48.20
2022-12-18T04:06:59.485Z,50.50
2022-12-18T04:07:59.462Z,44.00
2022-12-18T04:08:59.631Z,43.10
2022-12-18T04:09:59.455Z,49.00
2022-12-18T04:10:59.501Z,46.10
2022-12-18T04:11:59.691Z,35.10
2022-12-18T04:12:59.420Z,37.70
2022-12-18T04:13:59.439Z,46.70
2022-12-18T04:14:59.389Z,39.80
2022-12-18T04:15:59.518Z,38.40
2022-12-18T04:16:59.385Z,34.60
2022-12-18T04:17:59.356Z,40.40
2022-12-18T04:18:59.355Z,42.20
2022-12-18T04:19:59.334Z,50.00
2022-12-18T04:20:59.358Z,47.60
2022-12-18T04:21:59.473Z,35.90
2022-12-18T04:22:59.319Z,37.70
2022-12-18T04:23:59.301Z,45.80
2022-12-18T04:24:59.301Z,42.70
2022-12-18T04:25:59.292Z,43.20
2022-12-18T04:26:59.281Z,43.50
2022-12-18T04:27:59.324Z,39.70
2022-12-18T04:28:59.265Z,37.30
2022-12-18T04:29:59.261Z,45.60
2022-12-18T04:30:59.307Z,37.60
2022-12-18T04:31:59.248Z,41.70
2022-12-18T04:32:59.240Z,42.00
2022-12-18T04:33:59.249Z,37.30
2022-12-18T04:34:59.215Z,47.90
2022-12-18T04:35:59.200Z,43.30
2022-12-18T04:36:59.225Z,41.50
2022-12-18T04:37:59.198Z,38.70
2022-12-18T04:38:59.188Z,45.70
2022-12-18T04:39:59.312Z,40.20
2022-12-18T04:40:59.157Z,43.40
2022-12-18T04:41:59.144Z,43.90
2022-12-18T04:42:59.161Z,43.30
2022-12-18T04:43:59.187Z,38.10
2022-12-18T04:44:59.129Z,40.50
2022-12-18T04:45:59.186Z,52.00
2022-12-18T04:46:59.122Z,46.60
2022-12-18T04:47:59.108Z,43.00
2022-12-18T04:48:59.087Z,50.80
2022-12-18T04:49:59.071Z,34.20
2022-12-18T04:50:59.068Z,35.90
2022-12-18T04:51:59.056Z,50.90
2022-12-18T04:52:59.067Z,39.60
2022-12-18T04:53:59.072Z,44.60
2022-12-18T04:54:59.039Z,44.60
2022-12-18T04:55:59.019Z,36.70
2022-12-18T04:56:59.009Z,45.10
2022-12-18T04:57:59.028Z,51.20
2022-12-18T04:58:58.996Z,40.00
2022-12-18T04:59:58.996Z,47.90
2022-12-18T05:00:58.985Z,41.20
2022-12-18T05:01:59.390Z,44.60
2022-12-18T05:02:59.051Z,48.10
2022-12-18T05:03:58.980Z,42.70
2022-12-18T05:04:59.149Z,34.40
2022-12-18T05:05:58.953Z,46.40
2022-12-18T05:06:58.926Z,39.20
2022-12-18T05:07:59.042Z,45.50
2022-12-18T05:08:58.903Z,43.50
2022-12-18T05:09:58.891Z,38.20
2022-12-18T05:10:59.361Z,48.10
2022-12-18T05:11:58.875Z,44.20
2022-12-18T05:12:58.884Z,40.90
2022-12-18T05:13:58.973Z,47.20
2022-12-18T05:14:58.864Z,52.90
2022-12-18T05:15:58.913Z,50.10
2022-12-18T05:17:01.017Z,44.40
2022-12-18T05:17:58.835Z,48.30
2022-12-18T05:18:58.835Z,52.60
2022-12-18T05:19:58.816Z,35.40
2022-12-18T05:20:58.959Z,42.20
2022-12-18T05:21:59.070Z,43.80
2022-12-18T05:22:58.781Z,44.90
2022-12-18T05:23:58.778Z,45.70
2022-12-18T05:24:58.801Z,46.60
2022-12-18T05:25:58.787Z,50.90
2022-12-18T05:26:58.751Z,39.80
2022-12-18T05:27:58.821Z,45.00
2022-12-18T05:28:58.775Z,48.30
2022-12-18T05:29:58.717Z,39.10
2022-12-18T05:30:58.828Z,49.20
2022-12-18T05:31:58.732Z,43.60
2022-12-18T05:32:58.737Z,42.30
2022-12-18T05:33:58.743Z,41.40
2022-12-18T05:34:58.695Z,48.10
2022-12-18T05:35:58.660Z,42.00
2022-12-18T05:36:58.683Z,46.80
2022-12-18T05:37:58.668Z,48.40
2022-12-18T05:38:58.652Z,51.90
2022-12-18T05:39:58.644Z,48.40
2022-12-18T05:40:58.635Z,47.50
2022-12-18T05:41:58.612Z,40.10
2022-12-18T05:42:58.604Z,44.10
2022-12-18T05:43:58.587Z,47.80
2022-12-18T05:44:58.586Z,53.40
2022-12-18T05:45:58.644Z,54.50
2022-12-18T05:46:58.636Z,50.80
2022-12-18T05:47:58.555Z,50.90
2022-12-18T05:48:58.551Z,50.90
2022-12-18T05:49:58.573Z,49.80
2022-12-18T05:50:58.589Z,46.90
2022-12-18T05:51:58.570Z,58.30
2022-12-18T05:52:58.566Z,48.20
2022-12-18T05:53:58.515Z,46.60
2022-12-18T05:54:58.521Z,51.60
2022-12-18T05:55:58.490Z,46.60
2022-12-18T05:56:58.488Z,42.40
2022-12-18T05:57:58.479Z,48.60
2022-12-18T05:58:58.480Z,52.20
2022-12-18T05:59:58.467Z,54.80
2022-12-18T06:00:58.463Z,50.80
2022-12-18T06:01:58.645Z,38.40
2022-12-18T06:02:58.581Z,54.00
2022-12-18T06:03:58.572Z,50.90
2022-12-18T06:04:58.497Z,38.00
2022-12-18T06:05:58.393Z,57.90
2022-12-18T06:06:58.416Z,51.30
2022-12-18T06:07:58.387Z,52.20
2022-12-18T06:08:58.389Z,54.70
2022-12-18T06:09:58.383Z,47.00
2022-12-18T06:10:58.357Z,46.80
2022-12-18T06:11:58.362Z,54.00
2022-12-18T06:12:58.362Z,49.50
2022-12-18T06:13:59.436Z,52.10
2022-12-18T06:14:58.319Z,45.30
2022-12-18T06:15:58.344Z,52.20
2022-12-18T06:16:58.324Z,52.20
2022-12-18T06:17:58.308Z,50.60
2022-12-18T06:18:58.316Z,46.20
2022-12-18T06:19:58.328Z,48.70
2022-12-18T06:20:58.296Z,48.20
2022-12-18T06:21:58.254Z,60.00
2022-12-18T06:22:58.256Z,43.00
2022-12-18T06:23:58.231Z,50.10
2022-12-18T06:24:58.239Z,60.40
2022-12-18T06:25:58.243Z,44.70
2022-12-18T06:26:58.235Z,58.50
2022-12-18T06:27:58.313Z,50.00
2022-12-18T06:28:58.168Z,48.50
2022-12-18T06:29:58.129Z,51.90
2022-12-18T06:30:58.190Z,41.90
2022-12-18T06:31:58.294Z,50.50
2022-12-18T06:32:58.140Z,56.60
2022-12-18T06:33:58.101Z,55.60
2022-12-18T06:34:58.159Z,56.50
2022-12-18T06:36:01.107Z,46.40
2022-12-18T06:36:58.111Z,51.50
2022-12-18T06:37:58.157Z,42.80
2022-12-18T06:38:58.056Z,49.40
2022-12-18T06:39:58.066Z,52.60
2022-12-18T06:40:58.222Z,54.40
2022-12-18T06:41:58.028Z,50.00
2022-12-18T06:42:58.017Z,51.80
2022-12-18T06:43:59.958Z,47.00
2022-12-18T06:44:57.999Z,61.10
2022-12-18T06:45:58.036Z,47.10
2022-12-18T06:46:58.058Z,42.10
2022-12-18T06:47:57.983Z,55.00
2022-12-18T06:48:57.998Z,42.30
2022-12-18T06:49:57.967Z,55.40
2022-12-18T06:50:57.943Z,49.10
2022-12-18T06:51:57.949Z,58.60
2022-12-18T06:52:57.972Z,53.10
2022-12-18T06:53:57.918Z,43.80
2022-12-18T06:54:57.982Z,80.70
2022-12-18T06:55:57.896Z,55.20
2022-12-18T06:56:57.893Z,50.10
2022-12-18T06:57:57.895Z,44.70
2022-12-18T06:58:57.962Z,46.40
2022-12-18T06:59:57.871Z,48.90
2022-12-18T07:00:57.913Z,44.80
2022-12-18T07:01:58.136Z,52.60
2022-12-18T07:02:57.870Z,56.60
2022-12-18T07:03:57.824Z,46.50
2022-12-18T07:04:57.866Z,48.40
2022-12-18T07:05:57.812Z,64.40
2022-12-18T07:06:57.807Z,53.80
2022-12-18T07:07:57.808Z,55.60
2022-12-18T07:08:57.886Z,52.90
2022-12-18T07:09:57.785Z,49.00
2022-12-18T07:10:57.776Z,51.00
2022-12-18T07:11:57.759Z,48.80
2022-12-18T07:12:57.749Z,44.50
2022-12-18T07:13:57.749Z,45.20
2022-12-18T07:14:57.907Z,46.30
2022-12-18T07:15:57.836Z,47.90
2022-12-18T07:16:57.800Z,45.70
2022-12-18T07:17:58.026Z,43.30
2022-12-18T07:18:57.707Z,48.60
2022-12-18T07:19:57.692Z,47.80
2022-12-18T07:20:57.698Z,49.40
2022-12-18T07:21:57.804Z,45.60
2022-12-18T07:22:57.666Z,50.40
2022-12-18T07:23:57.648Z,50.70
2022-12-18T07:24:57.949Z,55.80
2022-12-18T07:25:57.637Z,48.10
2022-12-18T07:26:57.644Z,48.30
2022-12-18T07:27:57.749Z,46.80
2022-12-18T07:28:57.606Z,44.40
2022-12-18T07:29:57.603Z,61.50
2022-12-18T07:30:57.736Z,42.90
2022-12-18T07:31:57.643Z,42.90
2022-12-18T07:32:57.592Z,55.30
2022-12-18T07:33:57.575Z,54.70
2022-12-18T07:34:57.557Z,50.80
2022-12-18T07:35:57.556Z,44.00
2022-12-18T07:36:57.552Z,48.30
2022-12-18T07:37:57.768Z,39.10
2022-12-18T07:38:57.548Z,51.30
2022-12-18T07:39:57.517Z,43.90
2022-12-18T07:40:57.497Z,51.00
2022-12-18T07:41:57.490Z,50.20
2022-12-18T07:42:57.481Z,36.00
2022-12-18T07:43:57.490Z,40.30
2022-12-18T07:44:57.462Z,44.90
2022-12-18T07:45:57.515Z,43.10
2022-12-18T07:46:57.535Z,44.80
2022-12-18T07:47:57.463Z,41.00
2022-12-18T07:48:57.423Z,54.80
2022-12-18T07:49:57.428Z,46.70
2022-12-18T07:50:57.407Z,44.30
2022-12-18T07:51:57.439Z,37.70
2022-12-18T07:52:57.395Z,41.90
2022-12-18T07:53:57.399Z,41.00
2022-12-18T07:54:57.367Z,49.10
2022-12-18T07:56:25.400Z,53.60
2022-12-18T07:56:57.373Z,52.90
2022-12-18T07:58:01.000Z,40.70
2022-12-18T07:58:57.395Z,53.10
2022-12-18T07:59:57.417Z,54.60
2022-12-18T08:00:57.331Z,39.70
2022-12-18T08:01:57.520Z,53.30
2022-12-18T08:02:57.827Z,36.80
2022-12-18T08:03:57.506Z,45.40
2022-12-18T08:04:57.556Z,47.40
2022-12-18T08:05:57.344Z,40.20
2022-12-18T08:06:57.392Z,41.70
2022-12-18T08:07:57.504Z,45.80
2022-12-18T08:08:57.505Z,45.70
2022-12-18T08:09:57.427Z,48.20
2022-12-18T08:10:57.709Z,45.60
2022-12-18T08:11:57.685Z,39.30
2022-12-18T08:13:01.557Z,51.50
2022-12-18T08:13:57.357Z,46.80
2022-12-18T08:14:57.368Z,40.20
2022-12-18T08:15:57.367Z,48.90
2022-12-18T08:16:57.412Z,46.70
2022-12-18T08:17:57.232Z,48.60
2022-12-18T08:18:57.159Z,50.80
2022-12-18T08:19:57.214Z,31.00
2022-12-18T08:20:57.261Z,31.60
2022-12-18T08:21:57.178Z,39.80
2022-12-18T08:22:57.203Z,31.60
2022-12-18T08:23:57.126Z,41.20
2022-12-18T08:24:57.263Z,32.20
2022-12-18T08:25:57.132Z,41.60
2022-12-18T08:27:21.209Z,30.70
2022-12-18T08:27:57.143Z,38.10
2022-12-18T08:28:57.155Z,38.90
2022-12-18T08:29:57.162Z,32.10
2022-12-18T08:30:57.418Z,30.50
2022-12-18T08:31:57.233Z,36.40
2022-12-18T08:32:57.060Z,35.80
2022-12-18T08:33:57.116Z,39.80
2022-12-18T08:34:57.025Z,37.00
2022-12-18T08:35:57.085Z,28.20
2022-12-18T08:36:57.033Z,33.80
2022-12-18T08:37:57.078Z,33.00
2022-12-18T08:38:57.542Z,28.40
2022-12-18T08:39:57.197Z,30.70
2022-12-18T08:40:57.091Z,32.60
2022-12-18T08:41:57.085Z,31.10
2022-12-18T08:42:57.104Z,28.40
2022-12-18T08:43:56.990Z,39.00
2022-12-18T08:44:56.933Z,31.40
2022-12-18T08:45:57.178Z,27.90
2022-12-18T08:46:56.919Z,39.00
2022-12-18T08:47:56.884Z,38.30
2022-12-18T08:48:56.905Z,38.70
2022-12-18T08:49:56.874Z,33.80
2022-12-18T08:50:57.023Z,34.50
2022-12-18T08:51:56.878Z,31.30
2022-12-18T08:52:56.835Z,32.80
2022-12-18T08:53:56.829Z,31.30
2022-12-18T08:54:56.822Z,37.10
2022-12-18T08:55:56.832Z,38.30
2022-12-18T08:56:56.816Z,33.80
2022-12-18T08:57:56.789Z,35.80
2022-12-18T08:58:56.801Z,37.90
2022-12-18T08:59:56.789Z,33.60
2022-12-18T09:00:56.806Z,32.40
2022-12-18T09:01:56.829Z,33.90
2022-12-18T09:02:56.921Z,35.00
2022-12-18T09:03:56.761Z,40.80
2022-12-18T09:04:57.701Z,35.30
2022-12-18T09:05:56.733Z,35.30
2022-12-18T09:06:56.764Z,31.50
2022-12-18T09:07:56.869Z,43.70
2022-12-18T09:08:56.916Z,27.10
2022-12-18T09:09:56.813Z,31.90
2022-12-18T09:10:56.677Z,31.60
2022-12-18T09:11:56.668Z,28.30
2022-12-18T09:12:56.667Z,29.20
2022-12-18T09:13:56.685Z,27.00
2022-12-18T09:14:56.758Z,32.70
2022-12-18T09:15:56.627Z,31.60
2022-12-18T09:16:56.731Z,37.80
2022-12-18T09:17:56.613Z,30.40
2022-12-18T09:18:56.833Z,31.00
2022-12-18T09:19:56.591Z,33.60
2022-12-18T09:20:56.589Z,37.60
2022-12-18T09:21:56.665Z,27.70
2022-12-18T09:22:56.602Z,36.30
2022-12-18T09:23:56.598Z,35.80
2022-12-18T09:24:56.578Z,37.00
2022-12-18T09:25:56.564Z,30.80
2022-12-18T09:26:58.040Z,32.20
2022-12-18T09:27:56.595Z,30.50
2022-12-18T09:28:56.602Z,33.70
2022-12-18T09:29:56.598Z,27.00
2022-12-18T09:30:56.623Z,33.70
2022-12-18T09:31:56.608Z,38.50
2022-12-18T09:32:56.557Z,31.90
2022-12-18T09:33:56.538Z,33.30
2022-12-18T09:34:56.546Z,28.90
2022-12-18T09:35:56.520Z,39.50
2022-12-18T09:36:56.593Z,31.90
2022-12-18T09:37:56.633Z,29.40
2022-12-18T09:38:56.577Z,33.00
2022-12-18T09:39:56.452Z,32.20
2022-12-18T09:40:56.497Z,22.40
2022-12-18T09:41:56.416Z,30.70
2022-12-18T09:42:56.787Z,28.80
2022-12-18T09:43:56.368Z,30.00
2022-12-18T09:44:56.440Z,38.50
2022-12-18T09:45:56.776Z,32.20
2022-12-18T09:46:56.340Z,29.80
2022-12-18T09:47:56.411Z,33.90
2022-12-18T09:48:56.596Z,32.30
2022-12-18T09:49:56.322Z,27.80
2022-12-18T09:50:56.296Z,27.10
2022-12-18T09:51:56.291Z,28.70
2022-12-18T09:52:56.312Z,31.50
2022-12-18T09:53:56.290Z,32.50
2022-12-18T09:54:56.306Z,35.40
2022-12-18T09:55:56.894Z,30.70
2022-12-18T09:56:56.251Z,31.60
2022-12-18T09:57:56.239Z,27.60
2022-12-18T09:58:56.356Z,28.70
2022-12-18T09:59:56.238Z,38.50
2022-12-18T10:00:56.210Z,29.20
2022-12-18T10:01:56.312Z,37.20
2022-12-18T10:02:56.284Z,51.90
2022-12-18T10:03:56.272Z,34.80
2022-12-18T10:04:56.178Z,33.90
2022-12-18T10:05:56.247Z,29.30
2022-12-18T10:06:56.173Z,31.40
2022-12-18T10:07:56.154Z,37.30
2022-12-18T10:08:56.278Z,36.50
2022-12-18T10:09:56.137Z,34.20
2022-12-18T10:10:56.111Z,31.50
2022-12-18T10:11:56.280Z,33.30
2022-12-18T10:13:00.939Z,27.20
2022-12-18T10:13:56.112Z,34.50
2022-12-18T10:14:56.193Z,24.60
2022-12-18T10:15:56.162Z,30.20
2022-12-18T10:16:56.057Z,34.60
2022-12-18T10:17:56.284Z,35.50
2022-12-18T10:18:56.134Z,31.60
2022-12-18T10:19:56.162Z,36.70
2022-12-18T10:20:56.032Z,28.60
2022-12-18T10:21:56.038Z,25.10
2022-12-18T10:22:55.999Z,29.20
2022-12-18T10:23:56.065Z,34.30
2022-12-18T10:24:55.990Z,32.30
2022-12-18T10:25:55.994Z,31.80
2022-12-18T10:26:56.006Z,26.40
2022-12-18T10:27:55.957Z,28.60
2022-12-18T10:28:58.549Z,35.50
2022-12-18T10:29:55.946Z,31.10
2022-12-18T10:30:56.004Z,32.50
2022-12-18T10:31:55.944Z,26.30
2022-12-18T10:32:55.904Z,26.90
2022-12-18T10:33:55.901Z,34.50
2022-12-18T10:35:00.067Z,31.10
2022-12-18T10:35:55.908Z,22.80
2022-12-18T10:36:55.870Z,33.80
2022-12-18T10:37:55.890Z,29.40
2022-12-18T10:38:55.850Z,33.70
2022-12-18T10:39:55.869Z,30.60
2022-12-18T10:40:55.839Z,32.10
2022-12-18T10:41:55.847Z,21.10
2022-12-18T10:42:55.832Z,26.70
2022-12-18T10:43:55.826Z,26.40
2022-12-18T10:44:55.793Z,25.40
2022-12-18T10:45:55.804Z,25.30
2022-12-18T10:46:55.846Z,30.60
2022-12-18T10:47:55.771Z,24.60
2022-12-18T10:48:55.762Z,24.80
2022-12-18T10:49:55.769Z,25.20
2022-12-18T10:51:12.632Z,25.30
2022-12-18T10:51:55.838Z,27.90
2022-12-18T10:52:55.720Z,24.20
2022-12-18T10:53:55.715Z,29.80
2022-12-18T10:54:55.720Z,26.20
2022-12-18T10:55:55.846Z,26.60
2022-12-18T10:56:55.714Z,33.40
2022-12-18T10:57:55.673Z,28.00
2022-12-18T10:58:56.612Z,24.20
2022-12-18T10:59:55.681Z,31.20
2022-12-18T11:00:55.807Z,30.50
2022-12-18T11:01:55.875Z,30.90
2022-12-18T11:02:55.838Z,31.40
2022-12-18T11:04:00.442Z,33.90
2022-12-18T11:04:56.033Z,26.30
2022-12-18T11:05:55.756Z,29.30
2022-12-18T11:06:55.677Z,32.90
2022-12-18T11:07:56.397Z,25.40
2022-12-18T11:08:55.574Z,28.50
2022-12-18T11:09:55.608Z,30.60
2022-12-18T11:10:55.552Z,22.50
2022-12-18T11:11:55.592Z,32.30
2022-12-18T11:12:55.529Z,33.60
2022-12-18T11:13:55.727Z,24.20
2022-12-18T11:14:55.513Z,33.00
2022-12-18T11:15:55.621Z,27.50
2022-12-18T11:17:24.512Z,31.30
2022-12-18T11:17:55.496Z,28.30
2022-12-18T11:18:55.497Z,28.70
2022-12-18T11:19:55.583Z,29.90
2022-12-18T11:20:58.561Z,27.10
2022-12-18T11:21:56.138Z,25.60
2022-12-18T11:22:55.438Z,26.20
2022-12-18T11:23:55.715Z,28.10
2022-12-18T11:25:29.685Z,25.70
2022-12-18T11:25:55.472Z,23.90
2022-12-18T11:26:59.687Z,30.70
2022-12-18T11:27:55.408Z,27.90
2022-12-18T11:28:55.420Z,30.60
2022-12-18T11:29:55.383Z,32.20
2022-12-18T11:30:55.432Z,24.20
2022-12-18T11:31:55.444Z,27.20
2022-12-18T11:32:55.364Z,28.80
2022-12-18T11:34:26.715Z,25.20
2022-12-18T11:34:59.051Z,31.90
2022-12-18T11:35:55.312Z,24.80
2022-12-18T11:36:55.330Z,29.50
2022-12-18T11:37:55.315Z,24.60
2022-12-18T11:38:55.298Z,36.00
2022-12-18T11:39:55.310Z,31.90
2022-12-18T11:40:55.263Z,29.10
2022-12-18T11:41:55.258Z,34.10
2022-12-18T11:42:55.279Z,31.60
2022-12-18T11:43:55.234Z,26.90
2022-12-18T11:44:55.237Z,26.90
2022-12-18T11:45:55.257Z,27.50
2022-12-18T11:46:55.271Z,31.30
2022-12-18T11:47:55.202Z,27.50
2022-12-18T11:48:55.320Z,28.20
2022-12-18T11:49:55.236Z,30.60
2022-12-18T11:50:55.256Z,26.10
2022-12-18T11:51:55.159Z,25.30
2022-12-18T11:52:58.316Z,23.90
2022-12-18T11:53:55.163Z,22.80
2022-12-18T11:54:55.158Z,30.60
2022-12-18T11:55:55.177Z,28.00
2022-12-18T11:56:55.113Z,30.20
2022-12-18T11:57:55.111Z,28.40
2022-12-18T11:58:55.122Z,25.60
2022-12-18T11:59:55.138Z,29.20
2022-12-18T12:00:55.091Z,24.80
2022-12-18T12:01:55.164Z,27.40
2022-12-18T12:02:55.093Z,27.30
2022-12-18T12:03:55.108Z,35.40
2022-12-18T12:04:55.039Z,28.50
2022-12-18T12:05:55.045Z,29.20
2022-12-18T12:07:00.056Z,31.20
2022-12-18T12:07:55.025Z,30.00
2022-12-18T12:08:54.996Z,27.60
2022-12-18T12:09:55.027Z,32.30
2022-12-18T12:10:55.128Z,26.10
2022-12-18T12:11:54.972Z,35.40
2022-12-18T12:12:55.008Z,31.80
2022-12-18T12:13:55.108Z,32.20
2022-12-18T12:14:55.147Z,26.50
2022-12-18T12:15:54.978Z,28.00
2022-12-18T12:16:55.090Z,32.40
2022-12-18T12:17:54.921Z,26.80
2022-12-18T12:18:54.957Z,24.90
2022-12-18T12:19:54.950Z,28.70
2022-12-18T12:20:55.073Z,22.50
2022-12-18T12:21:54.911Z,24.10
2022-12-18T12:22:54.889Z,27.30
2022-12-18T12:23:54.971Z,29.80
2022-12-18T12:24:54.845Z,29.80
2022-12-18T12:25:54.835Z,30.50
2022-12-18T12:26:54.913Z,29.80
2022-12-18T12:27:54.926Z,25.90
2022-12-18T12:28:54.852Z,24.80
2022-12-18T12:29:54.802Z,22.70
2022-12-18T12:30:54.824Z,41.50
2022-12-18T12:31:55.756Z,33.50
2022-12-18T12:32:54.776Z,30.10
2022-12-18T12:33:54.757Z,30.60
2022-12-18T12:34:59.595Z,39.90
2022-12-18T12:35:54.742Z,32.10
2022-12-18T12:36:54.748Z,30.00
2022-12-18T12:37:54.725Z,29.60
2022-12-18T12:38:54.732Z,31.40
2022-12-18T12:39:54.726Z,31.60
2022-12-18T12:41:02.104Z,26.00
2022-12-18T12:41:54.699Z,32.20
2022-12-18T12:42:54.680Z,35.10
2022-12-18T12:43:55.014Z,26.70
2022-12-18T12:44:55.937Z,23.80
2022-12-18T12:45:54.683Z,28.80
2022-12-18T12:46:54.638Z,22.90
2022-12-18T12:47:54.625Z,30.30
2022-12-18T12:48:54.637Z,25.70
2022-12-18T12:49:54.699Z,27.70
2022-12-18T12:50:54.631Z,25.30
2022-12-18T12:51:54.614Z,23.30
2022-12-18T12:52:54.588Z,28.90
2022-12-18T12:53:54.566Z,24.00